createdAt,value
2019-03-27T00:02:08.673Z,8.30
2019-03-27T00:04:40.309Z,8.20
2019-03-27T00:07:08.818Z,8.30
2019-03-27T00:09:37.052Z,8.20
2019-03-27T00:12:07.154Z,8.20
2019-03-27T00:14:35.396Z,8.20
2019-03-27T00:17:04.252Z,8.20
2019-03-27T00:19:34.225Z,8.10
2019-03-27T00:22:02.481Z,8.10
2019-03-27T00:24:31.077Z,8.10
2019-03-27T00:26:59.345Z,8.10
2019-03-27T00:29:27.802Z,8.10
2019-03-27T00:31:56.119Z,8.10
2019-03-27T00:34:24.595Z,8.10
2019-03-27T00:36:53.161Z,8.10
2019-03-27T00:39:24.446Z,8.10
2019-03-27T00:42:00.112Z,8.10
2019-03-27T00:44:28.377Z,8.20
2019-03-27T00:46:56.650Z,8.10
2019-03-27T00:49:26.535Z,8.20
2019-03-27T00:51:54.775Z,8.20
2019-03-27T00:54:23.381Z,8.20
2019-03-27T00:56:51.774Z,8.20
2019-03-27T00:59:21.706Z,8.20
2019-03-27T01:01:49.947Z,8.20
2019-03-27T01:04:18.232Z,8.20
2019-03-27T01:06:46.471Z,8.20
2019-03-27T01:09:14.709Z,8.10
2019-03-27T01:11:42.964Z,8.10
2019-03-27T01:14:11.213Z,8.10
2019-03-27T01:16:39.453Z,8.20
2019-03-27T01:19:07.779Z,8.10
2019-03-27T01:21:36.030Z,8.10
2019-03-27T01:24:04.262Z,8.10
2019-03-27T01:26:32.619Z,8.10
2019-03-27T01:29:03.614Z,8.20
2019-03-27T01:31:32.590Z,8.10
2019-03-27T01:34:01.275Z,8.10
2019-03-27T01:36:29.505Z,8.20
2019-03-27T01:38:57.754Z,8.20
2019-03-27T01:41:26.352Z,8.20
2019-03-27T01:43:54.591Z,8.20
2019-03-27T01:46:22.832Z,8.20
2019-03-27T01:48:51.081Z,8.30
2019-03-27T01:51:19.327Z,8.20
2019-03-27T01:53:47.566Z,8.20
2019-03-27T01:56:16.258Z,8.10
2019-03-27T01:58:44.485Z,8.00
2019-03-27T02:01:12.737Z,8.00
2019-03-27T02:03:42.816Z,8.00
2019-03-27T02:06:11.117Z,7.90
2019-03-27T02:08:39.379Z,8.00
2019-03-27T02:11:08.051Z,8.00
2019-03-27T02:13:36.299Z,8.00
2019-03-27T02:16:17.251Z,8.10
2019-03-27T02:18:45.504Z,8.10
2019-03-27T02:21:13.785Z,8.10
2019-03-27T02:23:43.145Z,8.10
2019-03-27T02:26:11.375Z,8.10
2019-03-27T02:28:39.659Z,8.00
2019-03-27T02:31:07.921Z,8.00
2019-03-27T02:33:36.211Z,8.10
2019-03-27T02:36:04.639Z,8.00
2019-03-27T02:38:33.191Z,8.00
2019-03-27T02:41:01.508Z,8.00
2019-03-27T02:43:29.783Z,8.00
2019-03-27T02:45:58.074Z,8.00
2019-03-27T02:48:26.298Z,8.00
2019-03-27T02:50:54.537Z,8.00
2019-03-27T02:53:22.850Z,7.90
2019-03-27T02:55:51.169Z,7.90
2019-03-27T02:58:19.466Z,8.00
2019-03-27T03:00:49.619Z,8.00
2019-03-27T03:03:17.914Z,8.10
2019-03-27T03:05:46.146Z,8.10
2019-03-27T03:08:14.408Z,8.10
2019-03-27T03:10:45.491Z,8.10
2019-03-27T03:13:12.614Z,8.10
2019-03-27T03:15:40.885Z,8.10
2019-03-27T03:18:09.127Z,8.00
2019-03-27T03:20:37.391Z,7.90
2019-03-27T03:23:05.676Z,7.90
2019-03-27T03:25:33.911Z,8.00
2019-03-27T03:28:02.148Z,7.80
2019-03-27T03:30:30.514Z,7.80
2019-03-27T03:32:59.171Z,7.90
2019-03-27T03:35:28.167Z,7.90
2019-03-27T03:37:59.301Z,8.00
2019-03-27T03:40:27.545Z,8.00
2019-03-27T03:42:55.784Z,8.00
2019-03-27T03:45:24.665Z,8.00
2019-03-27T03:47:52.899Z,8.00
2019-03-27T03:50:40.878Z,8.10
2019-03-27T03:53:10.564Z,8.00
2019-03-27T03:55:39.088Z,7.90
2019-03-27T03:58:09.243Z,8.00
2019-03-27T04:00:37.655Z,8.00
2019-03-27T04:03:06.064Z,8.00
2019-03-27T04:05:34.529Z,8.00
2019-03-27T04:08:02.776Z,8.00
2019-03-27T04:10:31.011Z,8.00
2019-03-27T04:12:59.351Z,8.00
2019-03-27T04:15:27.594Z,7.90
2019-03-27T04:17:55.823Z,7.90
2019-03-27T04:20:24.080Z,7.90
2019-03-27T04:22:52.356Z,7.90
2019-03-27T04:25:20.965Z,7.90
2019-03-27T04:27:50.113Z,8.00
2019-03-27T04:30:18.353Z,8.00
2019-03-27T04:32:46.584Z,8.00
2019-03-27T04:35:15.257Z,8.00
2019-03-27T04:37:43.501Z,8.10
2019-03-27T04:40:11.737Z,8.00
2019-03-27T04:42:40.029Z,8.10
2019-03-27T04:45:08.315Z,8.10
2019-03-27T04:47:36.559Z,8.00
2019-03-27T04:50:08.003Z,8.10
2019-03-27T04:52:36.243Z,8.20
2019-03-27T04:55:05.615Z,8.20
2019-03-27T04:57:33.944Z,8.10
2019-03-27T05:00:02.557Z,8.10
2019-03-27T05:02:31.095Z,8.10
2019-03-27T05:04:59.811Z,8.10
2019-03-27T05:07:28.051Z,8.10
2019-03-27T05:09:56.292Z,8.10
2019-03-27T05:12:24.749Z,8.10
2019-03-27T05:14:52.987Z,8.20
2019-03-27T05:17:21.226Z,8.20
2019-03-27T05:19:49.568Z,8.20
2019-03-27T05:22:17.815Z,8.20
2019-03-27T05:24:47.386Z,8.20
2019-03-27T05:27:16.058Z,8.10
2019-03-27T05:29:44.308Z,8.10
2019-03-27T05:32:12.542Z,8.10
2019-03-27T05:34:41.082Z,8.10
2019-03-27T05:37:09.328Z,8.20
2019-03-27T05:39:39.557Z,8.30
2019-03-27T05:42:10.367Z,8.30
2019-03-27T05:44:38.621Z,8.20
2019-03-27T05:47:11.858Z,8.20
2019-03-27T05:49:40.114Z,8.30
2019-03-27T05:52:08.360Z,8.30
2019-03-27T05:54:36.602Z,8.20
2019-03-27T05:57:24.391Z,8.20
2019-03-27T05:59:52.719Z,8.30
2019-03-27T06:02:21.004Z,8.40
2019-03-27T06:04:49.578Z,8.40
2019-03-27T06:07:17.824Z,8.50
2019-03-27T06:09:46.063Z,8.40
2019-03-27T06:12:14.424Z,8.30
2019-03-27T06:14:42.663Z,8.40
2019-03-27T06:17:10.903Z,8.40
2019-03-27T06:19:39.262Z,8.50
2019-03-27T06:22:07.503Z,8.50
2019-03-27T06:24:35.769Z,8.50
2019-03-27T06:27:04.538Z,8.70
2019-03-27T06:29:35.002Z,8.70
2019-03-27T06:32:03.234Z,8.80
2019-03-27T06:34:31.583Z,8.90
2019-03-27T06:36:59.826Z,8.80
2019-03-27T06:39:28.059Z,8.70
2019-03-27T06:41:56.999Z,8.70
2019-03-27T06:44:25.738Z,8.80
2019-03-27T06:46:53.998Z,8.90
2019-03-27T06:49:22.620Z,9.00
2019-03-27T06:51:51.199Z,9.00
2019-03-27T06:54:19.441Z,9.00
2019-03-27T06:56:47.842Z,9.10
2019-03-27T06:59:16.076Z,9.10
2019-03-27T07:01:44.313Z,9.20
2019-03-27T07:04:12.913Z,9.30
2019-03-27T07:06:41.135Z,9.30
2019-03-27T07:09:09.466Z,9.30
2019-03-27T07:11:37.734Z,9.50
2019-03-27T07:14:05.983Z,9.60
2019-03-27T07:16:34.571Z,9.60
2019-03-27T07:19:03.611Z,9.50
2019-03-27T07:21:31.860Z,9.40
2019-03-27T07:24:00.175Z,9.60
2019-03-27T07:26:28.439Z,9.40
2019-03-27T07:28:57.243Z,9.50
2019-03-27T07:31:25.484Z,9.50
2019-03-27T07:33:54.018Z,9.50
2019-03-27T07:36:22.258Z,9.40
2019-03-27T07:38:50.808Z,9.40
2019-03-27T07:41:19.554Z,9.60
2019-03-27T07:43:48.088Z,9.70
2019-03-27T07:46:16.331Z,10.00
2019-03-27T07:48:53.661Z,10.10
2019-03-27T07:51:14.571Z,9.90
2019-03-27T07:53:42.833Z,9.90
2019-03-27T07:56:11.437Z,9.90
2019-03-27T07:58:39.683Z,10.10
2019-03-27T08:01:07.934Z,10.20
2019-03-27T08:03:36.567Z,10.10
2019-03-27T08:06:05.077Z,10.10
2019-03-27T08:08:33.332Z,10.00
2019-03-27T08:11:01.587Z,9.90
2019-03-27T08:13:29.873Z,10.00
2019-03-27T08:15:59.408Z,10.10
2019-03-27T08:18:27.808Z,10.30
2019-03-27T08:20:58.810Z,10.30
2019-03-27T08:23:29.838Z,10.50
2019-03-27T08:26:01.304Z,10.60
2019-03-27T08:28:29.542Z,10.70
2019-03-27T08:30:58.277Z,10.90
2019-03-27T08:33:26.605Z,11.00
2019-03-27T08:35:54.855Z,10.90
2019-03-27T08:38:23.103Z,11.00
2019-03-27T08:40:51.460Z,11.00
2019-03-27T08:43:21.399Z,10.80
2019-03-27T08:45:49.944Z,10.60
2019-03-27T08:48:18.242Z,10.70
2019-03-27T08:50:48.130Z,10.70
2019-03-27T08:53:18.002Z,10.60
2019-03-27T08:55:46.370Z,10.40
2019-03-27T08:58:14.607Z,10.40
2019-03-27T09:00:48.145Z,10.60
2019-03-27T09:03:16.581Z,10.90
2019-03-27T09:05:45.158Z,11.00
2019-03-27T09:08:13.794Z,11.00
2019-03-27T09:10:42.551Z,11.10
2019-03-27T09:13:10.796Z,11.10
2019-03-27T09:15:39.051Z,11.10
2019-03-27T09:18:16.949Z,11.40
2019-03-27T09:20:47.603Z,11.60
2019-03-27T09:23:18.122Z,11.50
2019-03-27T09:26:05.661Z,11.40
2019-03-27T09:28:35.544Z,11.40
2019-03-27T09:31:14.339Z,11.00
2019-03-27T09:33:51.967Z,10.80
2019-03-27T09:36:20.293Z,10.90
2019-03-27T09:38:48.559Z,11.00
2019-03-27T09:41:16.805Z,11.30
2019-03-27T09:43:45.112Z,11.20
2019-03-27T09:46:13.400Z,11.20
2019-03-27T09:48:41.637Z,11.30
2019-03-27T09:51:09.976Z,11.40
2019-03-27T09:53:40.026Z,11.60
2019-03-27T09:56:19.018Z,11.70
2019-03-27T09:58:43.596Z,11.50
2019-03-27T10:01:11.847Z,11.30
2019-03-27T10:03:42.799Z,11.20
2019-03-27T10:06:11.092Z,11.40
2019-03-27T10:08:39.344Z,11.20
2019-03-27T10:11:07.589Z,11.10
2019-03-27T10:13:37.512Z,10.90
2019-03-27T10:16:05.771Z,10.90
2019-03-27T10:18:35.644Z,10.90
2019-03-27T10:21:06.079Z,10.90
2019-03-27T10:23:34.349Z,11.00
2019-03-27T10:26:02.644Z,11.30
2019-03-27T10:28:32.576Z,11.20
2019-03-27T10:31:00.838Z,11.20
2019-03-27T10:33:29.062Z,11.10
2019-03-27T10:35:57.540Z,11.20
2019-03-27T10:38:25.789Z,11.00
2019-03-27T10:40:54.292Z,11.00
2019-03-27T10:43:22.567Z,11.00
2019-03-27T10:45:50.842Z,11.20
2019-03-27T10:48:19.074Z,11.30
2019-03-27T10:50:47.755Z,11.30
2019-03-27T10:53:15.991Z,11.30
2019-03-27T10:55:44.563Z,11.00
2019-03-27T10:58:12.925Z,10.70
2019-03-27T11:00:41.160Z,10.70
2019-03-27T11:03:09.407Z,10.80
2019-03-27T11:05:37.723Z,10.90
2019-03-27T11:08:06.022Z,10.80
2019-03-27T11:10:34.270Z,10.60
2019-03-27T11:13:02.587Z,10.70
2019-03-27T11:15:30.845Z,10.80
2019-03-27T11:17:59.101Z,10.90
2019-03-27T11:20:31.213Z,11.10
2019-03-27T11:22:57.495Z,10.90
2019-03-27T11:25:25.727Z,11.00
2019-03-27T11:27:53.995Z,11.10
2019-03-27T11:30:25.507Z,11.00
2019-03-27T11:32:53.735Z,11.20
2019-03-27T11:35:21.992Z,11.20
2019-03-27T11:37:51.267Z,11.00
2019-03-27T11:40:19.522Z,11.10
2019-03-27T11:42:47.787Z,11.20
2019-03-27T11:45:16.370Z,11.20
2019-03-27T11:47:53.951Z,11.30
2019-03-27T11:50:25.476Z,11.20
2019-03-27T11:52:58.304Z,10.90
2019-03-27T11:55:31.409Z,10.70
2019-03-27T11:58:00.591Z,10.60
2019-03-27T12:00:28.826Z,10.40
2019-03-27T12:02:57.079Z,10.20
2019-03-27T12:05:25.710Z,9.90
2019-03-27T12:07:53.951Z,9.80
2019-03-27T12:10:22.185Z,9.70
2019-03-27T12:12:50.458Z,9.70
2019-03-27T12:15:27.914Z,9.80
2019-03-27T12:17:56.240Z,9.80
2019-03-27T12:20:24.473Z,10.00
2019-03-27T12:22:57.977Z,10.10
2019-03-27T12:25:22.791Z,10.10
2019-03-27T12:27:51.051Z,10.00
2019-03-27T12:30:19.296Z,9.90
2019-03-27T12:32:47.598Z,10.00
2019-03-27T12:35:15.844Z,10.20
2019-03-27T12:37:44.100Z,10.20
2019-03-27T12:40:13.933Z,10.30
2019-03-27T12:42:42.433Z,10.30
2019-03-27T12:45:10.671Z,10.20
2019-03-27T12:47:38.939Z,10.40
2019-03-27T12:50:10.126Z,10.50
2019-03-27T12:52:38.433Z,10.60
2019-03-27T12:55:09.669Z,10.50
2019-03-27T12:57:38.276Z,10.40
2019-03-27T13:00:09.951Z,10.30
2019-03-27T13:02:38.502Z,10.20
2019-03-27T13:05:07.312Z,10.20
2019-03-27T13:07:49.118Z,10.10
2019-03-27T13:10:05.834Z,10.20
2019-03-27T13:12:38.731Z,10.20
2019-03-27T13:15:11.516Z,10.30
2019-03-27T13:17:39.871Z,10.20
2019-03-27T13:20:09.281Z,10.20
2019-03-27T13:22:38.378Z,10.20
2019-03-27T13:25:07.143Z,10.10
2019-03-27T13:27:35.389Z,10.00
2019-03-27T13:30:05.867Z,9.90
2019-03-27T13:32:34.149Z,10.00
2019-03-27T13:35:02.655Z,10.10
2019-03-27T13:37:30.906Z,10.10
2019-03-27T13:40:00.231Z,10.10
2019-03-27T13:42:42.443Z,9.90
2019-03-27T13:45:10.727Z,9.90
2019-03-27T13:47:44.153Z,9.90
2019-03-27T13:50:18.249Z,9.90
2019-03-27T13:52:46.495Z,9.90
2019-03-27T13:55:19.078Z,10.00
2019-03-27T13:58:12.541Z,10.10
2019-03-27T14:00:40.810Z,10.10
2019-03-27T14:03:09.540Z,10.10
2019-03-27T14:05:37.796Z,10.10
2019-03-27T14:08:17.064Z,10.20
2019-03-27T14:10:45.363Z,10.20
2019-03-27T14:13:15.432Z,10.20
2019-03-27T14:15:55.344Z,10.20
2019-03-27T14:18:26.013Z,10.30
2019-03-27T14:20:57.414Z,10.30
2019-03-27T14:23:25.678Z,10.30
2019-03-27T14:25:53.960Z,10.30
2019-03-27T14:28:24.895Z,10.40
2019-03-27T14:30:54.801Z,10.40
2019-03-27T14:33:27.848Z,10.30
2019-03-27T14:35:56.075Z,10.10
2019-03-27T14:38:24.624Z,10.10
2019-03-27T14:40:53.298Z,10.10
2019-03-27T14:43:21.945Z,10.10
2019-03-27T14:45:50.353Z,10.20
2019-03-27T14:48:38.187Z,10.10
2019-03-27T14:51:06.455Z,10.00
2019-03-27T14:53:35.069Z,10.10
2019-03-27T14:56:03.588Z,10.20
2019-03-27T14:58:33.523Z,10.20
2019-03-27T15:01:01.840Z,10.10
2019-03-27T15:03:30.672Z,10.20
2019-03-27T15:05:58.921Z,10.30
2019-03-27T15:08:27.233Z,10.50
2019-03-27T15:10:57.702Z,10.40
2019-03-27T15:13:25.946Z,10.30
2019-03-27T15:15:54.206Z,10.20
2019-03-27T15:18:22.961Z,10.10
2019-03-27T15:20:51.598Z,10.00
2019-03-27T15:23:19.843Z,9.90
2019-03-27T15:25:48.092Z,9.90
2019-03-27T15:28:16.336Z,9.90
2019-03-27T15:30:44.596Z,9.80
2019-03-27T15:33:12.824Z,9.80
2019-03-27T15:35:44.328Z,9.90
2019-03-27T15:38:11.034Z,10.00
2019-03-27T15:40:43.047Z,10.10
2019-03-27T15:43:12.929Z,10.00
2019-03-27T15:45:48.235Z,10.00
2019-03-27T15:48:35.934Z,10.00
2019-03-27T15:51:10.162Z,10.00
2019-03-27T15:53:41.242Z,10.00
2019-03-27T15:56:13.760Z,10.00
2019-03-27T15:58:42.851Z,9.90
2019-03-27T16:01:11.088Z,9.90
2019-03-27T16:03:39.322Z,9.90
2019-03-27T16:06:07.627Z,9.90
2019-03-27T16:08:35.857Z,9.90
2019-03-27T16:11:04.101Z,10.00
2019-03-27T16:13:32.378Z,10.00
2019-03-27T16:16:00.681Z,10.00
2019-03-27T16:18:28.907Z,10.10
2019-03-27T16:20:57.563Z,10.10
2019-03-27T16:23:25.812Z,10.10
2019-03-27T16:25:54.095Z,10.20
2019-03-27T16:28:24.061Z,10.10
2019-03-27T16:30:52.305Z,10.00
2019-03-27T16:33:20.855Z,9.90
2019-03-27T16:35:49.119Z,10.00
2019-03-27T16:38:17.387Z,10.00
2019-03-27T16:40:46.684Z,10.00
2019-03-27T16:43:14.965Z,10.10
2019-03-27T16:45:43.215Z,10.00
2019-03-27T16:48:11.857Z,10.00
2019-03-27T16:50:40.124Z,10.00
2019-03-27T16:53:08.378Z,10.00
2019-03-27T16:55:36.658Z,10.00
2019-03-27T16:58:05.095Z,10.00
2019-03-27T17:00:33.338Z,10.10
2019-03-27T17:03:01.597Z,10.10
2019-03-27T17:05:29.897Z,10.00
2019-03-27T17:07:59.767Z,10.10
2019-03-27T17:10:28.030Z,10.10
2019-03-27T17:12:56.299Z,10.10
2019-03-27T17:15:24.559Z,10.10
2019-03-27T17:17:52.802Z,10.10
2019-03-27T17:20:21.126Z,10.00
2019-03-27T17:22:51.000Z,10.00
2019-03-27T17:25:19.260Z,10.00
2019-03-27T17:27:47.654Z,10.00
2019-03-27T17:30:15.893Z,10.00
2019-03-27T17:32:44.145Z,10.00
2019-03-27T17:35:12.503Z,10.00
2019-03-27T17:37:40.800Z,10.00
2019-03-27T17:40:15.092Z,9.90
2019-03-27T17:42:42.368Z,9.90
2019-03-27T17:45:10.615Z,9.80
2019-03-27T17:47:38.851Z,9.90
2019-03-27T17:50:11.981Z,9.80
2019-03-27T17:52:40.228Z,9.80
2019-03-27T17:55:08.465Z,9.80
2019-03-27T17:57:37.350Z,9.90
2019-03-27T18:00:07.726Z,9.80
2019-03-27T18:02:35.974Z,9.70
2019-03-27T18:05:06.482Z,9.70
2019-03-27T18:07:37.540Z,9.70
2019-03-27T18:10:24.787Z,9.70
2019-03-27T18:12:56.131Z,9.70
2019-03-27T18:15:24.363Z,9.70
2019-03-27T18:17:52.612Z,9.70
2019-03-27T18:20:20.860Z,9.70
2019-03-27T18:22:49.453Z,9.70
2019-03-27T18:25:19.328Z,9.70
2019-03-27T18:27:47.598Z,9.70
2019-03-27T18:30:15.907Z,9.70
2019-03-27T18:32:44.150Z,9.70
2019-03-27T18:35:12.587Z,9.60
2019-03-27T18:37:40.867Z,9.60
2019-03-27T18:40:09.831Z,9.60
2019-03-27T18:42:45.212Z,9.60
2019-03-27T18:45:13.568Z,9.70
2019-03-27T18:47:41.856Z,9.70
2019-03-27T18:50:10.158Z,9.70
2019-03-27T18:52:38.768Z,9.70
2019-03-27T18:55:07.501Z,9.80
2019-03-27T18:57:35.787Z,9.70
2019-03-27T19:00:06.066Z,9.80
2019-03-27T19:02:34.353Z,9.80
2019-03-27T19:05:07.390Z,9.80
2019-03-27T19:07:35.642Z,9.70
2019-03-27T19:10:08.360Z,9.80
2019-03-27T19:12:36.899Z,9.70
2019-03-27T19:15:09.735Z,9.70
2019-03-27T19:17:37.980Z,9.70
2019-03-27T19:20:09.084Z,9.70
2019-03-27T19:22:37.342Z,9.70
2019-03-27T19:25:07.580Z,9.70
2019-03-27T19:27:35.943Z,9.60
2019-03-27T19:30:06.186Z,9.60
2019-03-27T19:32:34.507Z,9.60
2019-03-27T19:35:02.862Z,9.60
2019-03-27T19:37:31.109Z,9.60
2019-03-27T19:40:01.092Z,9.70
2019-03-27T19:42:31.320Z,9.60
2019-03-27T19:44:59.951Z,9.70
2019-03-27T19:47:28.603Z,9.70
2019-03-27T19:49:57.616Z,9.60
2019-03-27T19:52:26.309Z,9.60
2019-03-27T19:54:54.595Z,9.40
2019-03-27T19:57:24.230Z,9.50
2019-03-27T19:59:55.754Z,9.50
2019-03-27T20:02:27.955Z,9.50
2019-03-27T20:05:03.752Z,9.50
2019-03-27T20:07:36.191Z,9.50
2019-03-27T20:10:02.032Z,9.50
2019-03-27T20:12:30.592Z,9.50
2019-03-27T20:15:11.080Z,9.40
2019-03-27T20:17:32.673Z,9.50
2019-03-27T20:20:07.141Z,9.40
2019-03-27T20:22:34.027Z,9.40
2019-03-27T20:25:02.275Z,9.40
2019-03-27T20:27:30.551Z,9.50
2019-03-27T20:29:58.786Z,9.40
2019-03-27T20:32:28.673Z,9.40
2019-03-27T20:34:57.007Z,9.40
2019-03-27T20:37:25.259Z,9.40
2019-03-27T20:39:53.526Z,9.40
2019-03-27T20:42:21.800Z,9.40
2019-03-27T20:44:50.304Z,9.30
2019-03-27T20:47:18.840Z,9.20
2019-03-27T20:49:47.303Z,9.20
2019-03-27T20:52:16.082Z,9.30
2019-03-27T20:54:54.254Z,9.40
2019-03-27T20:57:14.401Z,9.40
2019-03-27T20:59:42.647Z,9.50
2019-03-27T21:02:10.907Z,9.50
2019-03-27T21:04:39.561Z,9.50
2019-03-27T21:07:08.252Z,9.50
2019-03-27T21:09:36.491Z,9.40
2019-03-27T21:12:05.402Z,9.40
2019-03-27T21:14:33.710Z,9.40
2019-03-27T21:17:01.947Z,9.50
2019-03-27T21:19:30.276Z,9.50
2019-03-27T21:22:02.123Z,9.50
2019-03-27T21:24:30.361Z,9.50
2019-03-27T21:26:58.596Z,9.40
2019-03-27T21:29:26.856Z,9.30
2019-03-27T21:31:55.111Z,9.30
2019-03-27T21:34:23.451Z,9.40
2019-03-27T21:36:51.704Z,9.30
2019-03-27T21:39:19.957Z,9.40
2019-03-27T21:41:48.266Z,9.30
2019-03-27T21:44:16.533Z,9.20
2019-03-27T21:46:44.784Z,9.20
2019-03-27T21:49:13.340Z,9.30
2019-03-27T21:51:46.421Z,9.30
2019-03-27T21:54:30.485Z,9.30
2019-03-27T21:57:10.334Z,9.30
2019-03-27T21:59:48.557Z,9.30
2019-03-27T22:02:19.868Z,9.20
2019-03-27T22:04:52.452Z,9.10
2019-03-27T22:07:20.795Z,9.20
2019-03-27T22:09:51.828Z,9.20
2019-03-27T22:12:20.071Z,9.30
2019-03-27T22:14:48.400Z,9.30
2019-03-27T22:17:16.638Z,9.40
2019-03-27T22:19:44.880Z,9.30
2019-03-27T22:22:13.160Z,9.30
2019-03-27T22:24:41.427Z,9.20
2019-03-27T22:27:09.678Z,9.20
2019-03-27T22:29:38.011Z,9.30
2019-03-27T22:32:06.247Z,9.20
2019-03-27T22:34:34.501Z,9.30
2019-03-27T22:37:02.778Z,9.20
2019-03-27T22:39:31.019Z,9.20
2019-03-27T22:41:59.260Z,9.20
2019-03-27T22:44:27.532Z,9.20
2019-03-27T22:46:55.777Z,9.30
2019-03-27T22:49:24.015Z,9.30
2019-03-27T22:51:52.768Z,9.30
2019-03-27T22:54:21.030Z,9.20
2019-03-27T22:56:49.262Z,9.20
2019-03-27T22:59:17.562Z,9.20
2019-03-27T23:01:46.902Z,9.20
2019-03-27T23:04:15.150Z,9.30
2019-03-27T23:06:43.420Z,9.30
2019-03-27T23:09:11.662Z,9.20
2019-03-27T23:11:39.926Z,9.20
2019-03-27T23:14:08.240Z,9.20
2019-03-27T23:16:36.485Z,9.20
2019-03-27T23:19:04.763Z,9.30
2019-03-27T23:21:33.070Z,9.10
2019-03-27T23:24:01.677Z,9.10
2019-03-27T23:26:29.919Z,9.20
2019-03-27T23:28:58.502Z,9.20
2019-03-27T23:31:27.081Z,9.10
2019-03-27T23:33:55.336Z,9.10
2019-03-27T23:36:23.597Z,9.20
2019-03-27T23:38:51.856Z,9.20
2019-03-27T23:41:20.181Z,9.20
2019-03-27T23:43:49.066Z,9.20
2019-03-27T23:46:17.356Z,9.20
2019-03-27T23:48:45.611Z,9.30
2019-03-27T23:51:14.245Z,9.20
2019-03-27T23:53:42.495Z,9.20
2019-03-27T23:56:30.221Z,9.30
2019-03-27T23:58:58.463Z,9.30
